sensor_id;sensor_type;location;lat;lon;timestamp;temperature;humidity
55711;DHT22;41612;51.994;5.880;2022-10-16T01:14:38;12.90;82.80
55711;DHT22;41612;51.994;5.880;2022-10-16T01:17:31;12.90;83.80
55711;DHT22;41612;51.994;5.880;2022-10-16T01:25:16;13.00;84.10
55711;DHT22;41612;51.994;5.880;2022-10-16T01:27:45;13.00;83.80
55711;DHT22;41612;51.994;5.880;2022-10-16T01:30:17;13.00;83.30
55711;DHT22;41612;51.994;5.880;2022-10-16T01:35:37;13.00;83.50
55711;DHT22;41612;51.994;5.880;2022-10-16T01:38:08;13.00;82.90
55711;DHT22;41612;51.994;5.880;2022-10-16T01:40:39;13.00;82.60
55711;DHT22;41612;51.994;5.880;2022-10-16T01:43:16;13.10;83.20
55711;DHT22;41612;51.994;5.880;2022-10-16T01:45:44;13.00;83.10
55711;DHT22;41612;51.994;5.880;2022-10-16T01:48:17;13.10;83.30
55711;DHT22;41612;51.994;5.880;2022-10-16T01:50:54;13.10;83.70
55711;DHT22;41612;51.994;5.880;2022-10-16T01:53:22;13.00;83.00
55711;DHT22;41612;51.994;5.880;2022-10-16T01:55:52;13.10;83.70
55711;DHT22;41612;51.994;5.880;2022-10-16T01:58:20;13.20;83.40
55711;DHT22;41612;51.994;5.880;2022-10-16T02:00:47;13.20;83.70
55711;DHT22;41612;51.994;5.880;2022-10-16T02:03:16;13.20;83.90
55711;DHT22;41612;51.994;5.880;2022-10-16T02:05:53;13.20;83.80
55711;DHT22;41612;51.994;5.880;2022-10-16T02:08:20;13.20;83.10
55711;DHT22;41612;51.994;5.880;2022-10-16T02:10:46;13.20;83.00
55711;DHT22;41612;51.994;5.880;2022-10-16T02:13:18;13.20;83.70
55711;DHT22;41612;51.994;5.880;2022-10-16T02:15:46;13.20;83.90
55711;DHT22;41612;51.994;5.880;2022-10-16T02:18:12;13.20;84.10
55711;DHT22;41612;51.994;5.880;2022-10-16T02:26:03;13.20;84.00
55711;DHT22;41612;51.994;5.880;2022-10-16T02:28:42;13.20;83.60
55711;DHT22;41612;51.994;5.880;2022-10-16T02:31:11;13.20;84.20
55711;DHT22;41612;51.994;5.880;2022-10-16T02:33:40;13.10;84.50
55711;DHT22;41612;51.994;5.880;2022-10-16T02:36:07;13.20;83.10
55711;DHT22;41612;51.994;5.880;2022-10-16T02:38:34;13.20;84.00
55711;DHT22;41612;51.994;5.880;2022-10-16T02:41:00;13.10;84.40
55711;DHT22;41612;51.994;5.880;2022-10-16T02:43:26;13.10;84.40
55711;DHT22;41612;51.994;5.880;2022-10-16T02:45:52;13.10;84.40
55711;DHT22;41612;51.994;5.880;2022-10-16T02:48:17;13.00;83.80
55711;DHT22;41612;51.994;5.880;2022-10-16T02:50:43;13.10;83.70
55711;DHT22;41612;51.994;5.880;2022-10-16T02:53:09;13.10;83.70
55711;DHT22;41612;51.994;5.880;2022-10-16T02:55:34;13.00;83.80
55711;DHT22;41612;51.994;5.880;2022-10-16T02:58:00;13.00;83.50
55711;DHT22;41612;51.994;5.880;2022-10-16T03:00:26;13.00;83.30
55711;DHT22;41612;51.994;5.880;2022-10-16T03:02:51;13.00;83.80
55711;DHT22;41612;51.994;5.880;2022-10-16T03:05:17;13.00;83.80
55711;DHT22;41612;51.994;5.880;2022-10-16T03:07:43;13.00;84.10
55711;DHT22;41612;51.994;5.880;2022-10-16T03:10:09;13.00;84.40
55711;DHT22;41612;51.994;5.880;2022-10-16T03:12:35;13.10;84.90
55711;DHT22;41612;51.994;5.880;2022-10-16T03:15:00;13.10;84.90
55711;DHT22;41612;51.994;5.880;2022-10-16T03:17:26;13.10;84.10
55711;DHT22;41612;51.994;5.880;2022-10-16T03:19:52;13.10;83.40
55711;DHT22;41612;51.994;5.880;2022-10-16T03:22:17;13.10;84.30
55711;DHT22;41612;51.994;5.880;2022-10-16T03:24:43;13.00;84.00
55711;DHT22;41612;51.994;5.880;2022-10-16T03:27:09;13.00;83.40
55711;DHT22;41612;51.994;5.880;2022-10-16T03:29:35;13.00;83.30
55711;DHT22;41612;51.994;5.880;2022-10-16T03:32:01;13.00;83.70
55711;DHT22;41612;51.994;5.880;2022-10-16T03:34:27;13.00;84.30
55711;DHT22;41612;51.994;5.880;2022-10-16T03:36:53;13.00;84.10
55711;DHT22;41612;51.994;5.880;2022-10-16T03:39:19;13.00;84.10
55711;DHT22;41612;51.994;5.880;2022-10-16T03:41:45;13.00;84.00
55711;DHT22;41612;51.994;5.880;2022-10-16T03:44:12;13.00;84.10
55711;DHT22;41612;51.994;5.880;2022-10-16T03:46:38;13.00;84.70
55711;DHT22;41612;51.994;5.880;2022-10-16T03:49:03;13.00;83.90
55711;DHT22;41612;51.994;5.880;2022-10-16T03:51:29;12.90;84.70
55711;DHT22;41612;51.994;5.880;2022-10-16T03:53:55;12.90;84.40
55711;DHT22;41612;51.994;5.880;2022-10-16T03:56:21;13.00;84.40
55711;DHT22;41612;51.994;5.880;2022-10-16T03:58:46;13.00;84.70
55711;DHT22;41612;51.994;5.880;2022-10-16T04:01:12;13.00;84.90
55711;DHT22;41612;51.994;5.880;2022-10-16T04:03:38;13.00;84.50
55711;DHT22;41612;51.994;5.880;2022-10-16T04:06:04;12.90;84.30
55711;DHT22;41612;51.994;5.880;2022-10-16T04:08:29;12.90;84.50
55711;DHT22;41612;51.994;5.880;2022-10-16T04:10:55;12.90;85.30
55711;DHT22;41612;51.994;5.880;2022-10-16T04:13:21;12.90;85.50
55711;DHT22;41612;51.994;5.880;2022-10-16T04:15:47;12.90;85.80
55711;DHT22;41612;51.994;5.880;2022-10-16T04:18:12;13.00;85.40
55711;DHT22;41612;51.994;5.880;2022-10-16T04:20:38;13.00;85.20
55711;DHT22;41612;51.994;5.880;2022-10-16T04:23:04;13.10;85.30
55711;DHT22;41612;51.994;5.880;2022-10-16T04:25:30;13.10;84.80
55711;DHT22;41612;51.994;5.880;2022-10-16T04:27:56;13.20;84.90
55711;DHT22;41612;51.994;5.880;2022-10-16T04:30:23;13.20;84.20
55711;DHT22;41612;51.994;5.880;2022-10-16T04:32:50;13.10;84.20
55711;DHT22;41612;51.994;5.880;2022-10-16T04:35:17;13.20;84.40
55711;DHT22;41612;51.994;5.880;2022-10-16T04:37:43;13.20;84.60
55711;DHT22;41612;51.994;5.880;2022-10-16T04:40:09;13.10;84.80
55711;DHT22;41612;51.994;5.880;2022-10-16T04:42:35;13.10;84.00
55711;DHT22;41612;51.994;5.880;2022-10-16T04:45:00;13.10;84.00
55711;DHT22;41612;51.994;5.880;2022-10-16T04:47:26;13.00;83.70
55711;DHT22;41612;51.994;5.880;2022-10-16T04:49:52;13.00;84.40
55711;DHT22;41612;51.994;5.880;2022-10-16T04:52:18;13.00;84.40
55711;DHT22;41612;51.994;5.880;2022-10-16T04:54:47;12.90;84.30
55711;DHT22;41612;51.994;5.880;2022-10-16T04:57:12;12.90;85.40
55711;DHT22;41612;51.994;5.880;2022-10-16T04:59:38;12.90;85.00
55711;DHT22;41612;51.994;5.880;2022-10-16T05:02:04;12.90;85.10
55711;DHT22;41612;51.994;5.880;2022-10-16T05:04:30;13.00;84.50
55711;DHT22;41612;51.994;5.880;2022-10-16T05:06:55;12.90;84.80
55711;DHT22;41612;51.994;5.880;2022-10-16T05:09:21;13.00;84.60
55711;DHT22;41612;51.994;5.880;2022-10-16T05:11:47;12.90;84.30
55711;DHT22;41612;51.994;5.880;2022-10-16T05:14:12;12.90;85.00
55711;DHT22;41612;51.994;5.880;2022-10-16T05:16:38;12.90;85.10
55711;DHT22;41612;51.994;5.880;2022-10-16T05:19:04;12.80;85.50
55711;DHT22;41612;51.994;5.880;2022-10-16T05:21:29;12.80;84.50
55711;DHT22;41612;51.994;5.880;2022-10-16T05:23:55;12.80;85.50
55711;DHT22;41612;51.994;5.880;2022-10-16T05:26:21;12.80;85.50
55711;DHT22;41612;51.994;5.880;2022-10-16T05:28:47;12.70;85.40
55711;DHT22;41612;51.994;5.880;2022-10-16T05:31:13;12.70;85.40
55711;DHT22;41612;51.994;5.880;2022-10-16T05:33:38;12.70;85.10
55711;DHT22;41612;51.994;5.880;2022-10-16T05:36:06;12.70;85.30
55711;DHT22;41612;51.994;5.880;2022-10-16T05:38:34;12.60;85.20
55711;DHT22;41612;51.994;5.880;2022-10-16T05:40:59;12.60;85.50
55711;DHT22;41612;51.994;5.880;2022-10-16T05:43:27;12.60;85.20
55711;DHT22;41612;51.994;5.880;2022-10-16T05:46:00;12.50;85.80
55711;DHT22;41612;51.994;5.880;2022-10-16T05:48:26;12.50;85.60
55711;DHT22;41612;51.994;5.880;2022-10-16T05:51:06;12.50;85.80
55711;DHT22;41612;51.994;5.880;2022-10-16T05:53:35;12.50;85.50
55711;DHT22;41612;51.994;5.880;2022-10-16T05:56:04;12.40;85.90
55711;DHT22;41612;51.994;5.880;2022-10-16T05:58:32;12.30;86.10
55711;DHT22;41612;51.994;5.880;2022-10-16T06:03:28;12.30;85.20
55711;DHT22;41612;51.994;5.880;2022-10-16T06:05:54;12.30;85.00
55711;DHT22;41612;51.994;5.880;2022-10-16T06:08:21;12.30;85.30
55711;DHT22;41612;51.994;5.880;2022-10-16T06:10:47;12.30;85.60
55711;DHT22;41612;51.994;5.880;2022-10-16T06:13:14;12.20;85.50
55711;DHT22;41612;51.994;5.880;2022-10-16T06:15:41;12.30;85.60
55711;DHT22;41612;51.994;5.880;2022-10-16T06:18:10;12.30;85.30
55711;DHT22;41612;51.994;5.880;2022-10-16T06:20:36;12.30;85.90
55711;DHT22;41612;51.994;5.880;2022-10-16T06:23:03;12.30;86.00
55711;DHT22;41612;51.994;5.880;2022-10-16T06:25:30;12.50;86.30
55711;DHT22;41612;51.994;5.880;2022-10-16T06:27:56;12.50;86.80
55711;DHT22;41612;51.994;5.880;2022-10-16T06:30:22;12.60;86.80
55711;DHT22;41612;51.994;5.880;2022-10-16T06:32:48;12.60;85.70
55711;DHT22;41612;51.994;5.880;2022-10-16T06:35:14;12.70;85.70
55711;DHT22;41612;51.994;5.880;2022-10-16T06:37:39;12.70;85.40
55711;DHT22;41612;51.994;5.880;2022-10-16T06:40:06;12.80;85.70
55711;DHT22;41612;51.994;5.880;2022-10-16T06:42:31;12.70;85.70
55711;DHT22;41612;51.994;5.880;2022-10-16T06:44:58;12.80;86.00
55711;DHT22;41612;51.994;5.880;2022-10-16T06:47:24;12.80;85.10
55711;DHT22;41612;51.994;5.880;2022-10-16T06:49:50;12.90;84.50
55711;DHT22;41612;51.994;5.880;2022-10-16T06:52:16;13.00;84.80
55711;DHT22;41612;51.994;5.880;2022-10-16T06:54:41;13.00;84.90
55711;DHT22;41612;51.994;5.880;2022-10-16T06:57:07;13.00;84.50
55711;DHT22;41612;51.994;5.880;2022-10-16T06:59:33;13.00;85.10
55711;DHT22;41612;51.994;5.880;2022-10-16T07:01:59;13.10;84.70
55711;DHT22;41612;51.994;5.880;2022-10-16T07:04:25;13.10;84.90
55711;DHT22;41612;51.994;5.880;2022-10-16T07:06:51;13.20;85.40
55711;DHT22;41612;51.994;5.880;2022-10-16T07:09:17;13.20;84.90
55711;DHT22;41612;51.994;5.880;2022-10-16T07:11:43;13.20;84.50
55711;DHT22;41612;51.994;5.880;2022-10-16T07:14:20;13.20;83.40
55711;DHT22;41612;51.994;5.880;2022-10-16T07:16:47;13.30;83.80
55711;DHT22;41612;51.994;5.880;2022-10-16T07:19:13;13.30;83.70
55711;DHT22;41612;51.994;5.880;2022-10-16T07:21:41;13.30;84.10
55711;DHT22;41612;51.994;5.880;2022-10-16T07:24:12;13.40;84.10
55711;DHT22;41612;51.994;5.880;2022-10-16T07:26:39;13.50;83.80
55711;DHT22;41612;51.994;5.880;2022-10-16T07:29:07;13.50;83.90
55711;DHT22;41612;51.994;5.880;2022-10-16T07:31:36;13.50;84.60
55711;DHT22;41612;51.994;5.880;2022-10-16T07:34:03;13.50;84.70
55711;DHT22;41612;51.994;5.880;2022-10-16T07:36:29;13.50;84.40
55711;DHT22;41612;51.994;5.880;2022-10-16T07:38:55;13.70;84.80
55711;DHT22;41612;51.994;5.880;2022-10-16T07:41:20;13.80;83.70
55711;DHT22;41612;51.994;5.880;2022-10-16T07:43:50;13.90;83.40
55711;DHT22;41612;51.994;5.880;2022-10-16T07:46:16;13.90;82.30
55711;DHT22;41612;51.994;5.880;2022-10-16T07:48:43;14.00;83.70
55711;DHT22;41612;51.994;5.880;2022-10-16T07:51:22;14.00;83.50
55711;DHT22;41612;51.994;5.880;2022-10-16T07:54:04;14.00;83.70
55711;DHT22;41612;51.994;5.880;2022-10-16T07:56:33;14.10;84.20
55711;DHT22;41612;51.994;5.880;2022-10-16T07:58:59;14.20;83.30
55711;DHT22;41612;51.994;5.880;2022-10-16T08:01:33;14.30;82.40
55711;DHT22;41612;51.994;5.880;2022-10-16T08:04:05;14.50;82.20
55711;DHT22;41612;51.994;5.880;2022-10-16T08:06:55;14.50;82.40
55711;DHT22;41612;51.994;5.880;2022-10-16T08:09:30;14.60;82.60
55711;DHT22;41612;51.994;5.880;2022-10-16T08:12:01;14.70;81.80
55711;DHT22;41612;51.994;5.880;2022-10-16T08:14:28;14.80;81.40
55711;DHT22;41612;51.994;5.880;2022-10-16T08:16:57;14.80;81.90
55711;DHT22;41612;51.994;5.880;2022-10-16T08:19:26;14.90;81.20
55711;DHT22;41612;51.994;5.880;2022-10-16T08:22:04;15.00;80.80
55711;DHT22;41612;51.994;5.880;2022-10-16T08:24:33;15.20;80.50
55711;DHT22;41612;51.994;5.880;2022-10-16T08:27:03;15.30;79.50
55711;DHT22;41612;51.994;5.880;2022-10-16T08:29:36;15.30;79.60
55711;DHT22;41612;51.994;5.880;2022-10-16T08:32:04;15.20;79.50
55711;DHT22;41612;51.994;5.880;2022-10-16T08:34:36;15.20;78.80
55711;DHT22;41612;51.994;5.880;2022-10-16T08:37:07;15.20;78.60
55711;DHT22;41612;51.994;5.880;2022-10-16T08:39:47;15.20;80.30
55711;DHT22;41612;51.994;5.880;2022-10-16T08:48:29;15.20;79.70
55711;DHT22;41612;51.994;5.880;2022-10-16T08:51:02;15.20;80.30
55711;DHT22;41612;51.994;5.880;2022-10-16T08:56:05;15.00;79.40
55711;DHT22;41612;51.994;5.880;2022-10-16T08:58:31;15.10;80.70
55711;DHT22;41612;51.994;5.880;2022-10-16T09:01:13;15.10;80.20
55711;DHT22;41612;51.994;5.880;2022-10-16T09:12:37;15.40;78.70
55711;DHT22;41612;51.994;5.880;2022-10-16T09:15:19;15.50;78.40
55711;DHT22;41612;51.994;5.880;2022-10-16T09:18:06;15.60;78.50
55711;DHT22;41612;51.994;5.880;2022-10-16T09:20:51;15.70;77.40
55711;DHT22;41612;51.994;5.880;2022-10-16T09:23:30;15.80;77.30
55711;DHT22;41612;51.994;5.880;2022-10-16T09:25:59;15.90;76.40
55711;DHT22;41612;51.994;5.880;2022-10-16T09:28:30;16.00;76.40
55711;DHT22;41612;51.994;5.880;2022-10-16T09:30:56;16.10;76.10
55711;DHT22;41612;51.994;5.880;2022-10-16T09:33:29;16.20;75.90
55711;DHT22;41612;51.994;5.880;2022-10-16T09:35:57;16.50;74.60
55711;DHT22;41612;51.994;5.880;2022-10-16T09:38:33;16.70;75.10
55711;DHT22;41612;51.994;5.880;2022-10-16T09:41:33;17.00;73.70
55711;DHT22;41612;51.994;5.880;2022-10-16T09:44:01;17.30;72.60
55711;DHT22;41612;51.994;5.880;2022-10-16T09:46:30;17.30;71.80
55711;DHT22;41612;51.994;5.880;2022-10-16T09:49:03;17.40;70.40
55711;DHT22;41612;51.994;5.880;2022-10-16T09:51:32;17.40;71.90
55711;DHT22;41612;51.994;5.880;2022-10-16T09:54:27;17.60;71.10
55711;DHT22;41612;51.994;5.880;2022-10-16T09:57:05;17.70;70.60
55711;DHT22;41612;51.994;5.880;2022-10-16T09:59:48;17.70;70.90
55711;DHT22;41612;51.994;5.880;2022-10-16T10:02:29;17.70;70.50
55711;DHT22;41612;51.994;5.880;2022-10-16T10:04:55;17.90;70.30
55711;DHT22;41612;51.994;5.880;2022-10-16T10:07:27;18.20;67.30
55711;DHT22;41612;51.994;5.880;2022-10-16T10:09:55;18.40;69.30
55711;DHT22;41612;51.994;5.880;2022-10-16T10:12:24;18.60;68.00
55711;DHT22;41612;51.994;5.880;2022-10-16T10:14:52;18.60;68.00
55711;DHT22;41612;51.994;5.880;2022-10-16T10:17:50;18.70;65.10
55711;DHT22;41612;51.994;5.880;2022-10-16T10:20:28;19.00;66.50
55711;DHT22;41612;51.994;5.880;2022-10-16T10:22:57;18.90;67.00
55711;DHT22;41612;51.994;5.880;2022-10-16T10:28:36;19.50;64.70
55711;DHT22;41612;51.994;5.880;2022-10-16T10:31:14;19.50;64.00
55711;DHT22;41612;51.994;5.880;2022-10-16T10:34:04;19.70;63.90
55711;DHT22;41612;51.994;5.880;2022-10-16T10:36:38;19.80;63.80
55711;DHT22;41612;51.994;5.880;2022-10-16T10:39:27;19.90;63.00
55711;DHT22;41612;51.994;5.880;2022-10-16T10:50:18;20.10;61.00
55711;DHT22;41612;51.994;5.880;2022-10-16T10:59:08;20.60;58.20
55711;DHT22;41612;51.994;5.880;2022-10-16T11:01:26;20.80;58.10
55711;DHT22;41612;51.994;5.880;2022-10-16T11:09:37;20.80;55.50
55711;DHT22;41612;51.994;5.880;2022-10-16T11:12:20;20.60;57.40
55711;DHT22;41612;51.994;5.880;2022-10-16T11:22:52;20.50;56.90
55711;DHT22;41612;51.994;5.880;2022-10-16T11:25:28;20.70;56.30
55711;DHT22;41612;51.994;5.880;2022-10-16T11:30:43;22.10;52.30
55711;DHT22;41612;51.994;5.880;2022-10-16T11:41:36;22.70;49.10
55711;DHT22;41612;51.994;5.880;2022-10-16T11:49:40;22.70;51.50
55711;DHT22;41612;51.994;5.880;2022-10-16T11:52:25;22.90;49.70
55711;DHT22;41612;51.994;5.880;2022-10-16T11:55:01;22.10;49.40
55711;DHT22;41612;51.994;5.880;2022-10-16T11:57:35;21.60;51.60
55711;DHT22;41612;51.994;5.880;2022-10-16T12:00:35;22.60;50.90
55711;DHT22;41612;51.994;5.880;2022-10-16T12:08:52;26.80;39.60
55711;DHT22;41612;51.994;5.880;2022-10-16T12:16:33;27.50;38.50
55711;DHT22;41612;51.994;5.880;2022-10-16T12:19:15;27.90;38.50
55711;DHT22;41612;51.994;5.880;2022-10-16T12:21:43;28.70;36.90
55711;DHT22;41612;51.994;5.880;2022-10-16T13:44:19;31.10;31.60
55711;DHT22;41612;51.994;5.880;2022-10-16T13:46:46;30.80;31.80
55711;DHT22;41612;51.994;5.880;2022-10-16T13:49:14;30.70;32.40
55711;DHT22;41612;51.994;5.880;2022-10-16T13:51:40;30.50;33.60
55711;DHT22;41612;51.994;5.880;2022-10-16T13:54:09;29.50;35.40
55711;DHT22;41612;51.994;5.880;2022-10-16T13:56:38;29.20;35.50
55711;DHT22;41612;51.994;5.880;2022-10-16T13:59:06;29.20;35.00
55711;DHT22;41612;51.994;5.880;2022-10-16T14:01:43;29.80;34.10
55711;DHT22;41612;51.994;5.880;2022-10-16T14:04:11;30.20;33.90
55711;DHT22;41612;51.994;5.880;2022-10-16T14:06:44;30.70;33.80
55711;DHT22;41612;51.994;5.880;2022-10-16T14:09:28;30.80;33.30
55711;DHT22;41612;51.994;5.880;2022-10-16T14:12:01;30.50;33.60
55711;DHT22;41612;51.994;5.880;2022-10-16T14:14:39;29.80;34.60
55711;DHT22;41612;51.994;5.880;2022-10-16T14:17:06;29.30;36.60
55711;DHT22;41612;51.994;5.880;2022-10-16T14:19:35;29.00;36.10
55711;DHT22;41612;51.994;5.880;2022-10-16T14:22:02;28.70;36.70
55711;DHT22;41612;51.994;5.880;2022-10-16T14:24:37;27.70;37.30
55711;DHT22;41612;51.994;5.880;2022-10-16T14:27:33;26.90;39.20
55711;DHT22;41612;51.994;5.880;2022-10-16T14:30:26;26.90;39.60
55711;DHT22;41612;51.994;5.880;2022-10-16T14:33:22;27.20;39.40
55711;DHT22;41612;51.994;5.880;2022-10-16T14:36:12;27.40;37.80
55711;DHT22;41612;51.994;5.880;2022-10-16T14:38:40;27.70;37.80
55711;DHT22;41612;51.994;5.880;2022-10-16T14:41:07;28.10;36.60
55711;DHT22;41612;51.994;5.880;2022-10-16T14:43:42;28.50;35.90
